Time;durP1;ratioP1;P1;durP2;ratioP2;P2;SDS_P1;SDS_P2;PMS_P1;PMS_P2;Temp;Humidity;BMP_temperature;BMP_pressure;BME280_temperature;BME280_humidity;BME280_pressure;Samples;Min_cycle;Max_cycle;Signal;HPM_P1;HPM_P2
2023/05/04 00:02:00;;;;;;;7.87;6.70;;;11.30;99.90;;;;;;4978559;28;20188;-80
2023/05/04 00:04:25;;;;;;;12.30;7.57;;;11.30;99.90;;;;;;4975232;28;20202;-81
2023/05/04 00:06:51;;;;;;;11.27;7.00;;;11.20;99.90;;;;;;4978310;28;20536;-81
2023/05/04 00:09:16;;;;;;;9.43;7.60;;;11.20;99.90;;;;;;4977827;28;20195;-81
2023/05/04 00:11:42;;;;;;;9.60;6.53;;;11.20;99.90;;;;;;4977357;28;20191;-81
2023/05/04 00:14:07;;;;;;;10.43;6.53;;;11.20;99.90;;;;;;4977340;28;20192;-80
2023/05/04 00:16:34;;;;;;;10.60;7.60;;;11.10;99.90;;;;;;4970091;28;20259;-80
2023/05/04 00:19:00;;;;;;;9.73;7.13;;;11.10;99.90;;;;;;4974530;28;20227;-80
2023/05/04 00:21:25;;;;;;;10.10;7.40;;;11.00;99.90;;;;;;4990674;28;20957;-80
2023/05/04 00:23:51;;;;;;;12.43;7.10;;;11.00;99.90;;;;;;4976849;28;20218;-80
2023/05/04 00:26:16;;;;;;;10.07;7.20;;;11.00;99.90;;;;;;4977115;28;20219;-81
2023/05/04 00:28:42;;;;;;;12.33;6.80;;;11.00;99.90;;;;;;4973887;28;20240;-81
2023/05/04 00:31:07;;;;;;;12.50;7.90;;;10.90;99.90;;;;;;4977749;28;20644;-80
2023/05/04 00:33:33;;;;;;;9.53;6.97;;;10.90;99.90;;;;;;4973373;28;20193;-80
2023/05/04 00:35:58;;;;;;;8.93;7.30;;;10.80;99.90;;;;;;4974080;28;20233;-82
2023/05/04 00:38:24;;;;;;;11.07;7.30;;;10.80;99.90;;;;;;4976040;28;20706;-81
2023/05/04 00:40:49;;;;;;;8.70;6.77;;;10.70;99.90;;;;;;4977133;28;20216;-81
2023/05/04 00:43:15;;;;;;;8.50;6.60;;;10.70;99.90;;;;;;4973994;28;20294;-81
2023/05/04 00:45:41;;;;;;;8.80;7.03;;;10.60;99.90;;;;;;4977231;28;20704;-81
2023/05/04 00:48:07;;;;;;;11.10;7.40;;;10.60;99.90;;;;;;4991978;28;20398;-81
2023/05/04 00:50:33;;;;;;;9.53;6.13;;;10.60;99.90;;;;;;4977249;28;20193;-79
2023/05/04 00:53:04;;;;;;;8.37;7.07;;;10.60;99.90;;;;;;4976723;28;20869;-81
2023/05/04 00:55:30;;;;;;;9.63;7.77;;;10.60;99.90;;;;;;4975822;28;21193;-80
2023/05/04 00:57:56;;;;;;;11.90;6.90;;;10.60;99.90;;;;;;4992161;28;20440;-80
2023/05/04 01:00:21;;;;;;;14.60;7.33;;;10.60;99.90;;;;;;4979119;28;20443;-79
2023/05/04 01:02:48;;;;;;;11.23;7.37;;;10.60;99.90;;;;;;4979213;28;20212;-79
2023/05/04 01:05:14;;;;;;;12.03;8.33;;;10.50;99.90;;;;;;4975658;28;20220;-80
2023/05/04 01:08:03;;;;;;;12.50;8.00;;;10.50;99.90;;;;;;4973972;28;20435;-79
2023/05/04 01:10:37;;;;;;;15.43;8.07;;;10.50;99.90;;;;;;4973598;28;20275;-80
2023/05/04 01:13:14;;;;;;;12.03;8.33;;;10.50;99.90;;;;;;4973637;28;20443;-80
2023/05/04 01:15:41;;;;;;;7.43;6.37;;;10.50;99.90;;;;;;4988764;28;20459;-79
2023/05/04 01:18:07;;;;;;;11.13;7.13;;;10.40;99.90;;;;;;4974027;28;20631;-80
2023/05/04 01:20:33;;;;;;;10.07;7.40;;;10.40;99.90;;;;;;4974400;28;20434;-81
2023/05/04 01:22:59;;;;;;;9.87;7.50;;;10.40;99.90;;;;;;4974402;28;20467;-81
2023/05/04 01:25:34;;;;;;;11.80;7.97;;;10.40;99.90;;;;;;4974293;28;20223;-81
2023/05/04 01:28:11;;;;;;;10.87;6.87;;;10.40;99.90;;;;;;4989436;28;20980;-80
2023/05/04 01:30:50;;;;;;;8.77;6.77;;;10.40;99.90;;;;;;4973845;28;20625;-79
2023/05/04 01:33:17;;;;;;;9.50;7.27;;;10.40;99.90;;;;;;4972861;28;20953;-81
2023/05/04 01:35:43;;;;;;;11.70;7.17;;;10.40;99.90;;;;;;4973320;28;20995;-80
2023/05/04 01:38:09;;;;;;;17.23;6.30;;;10.30;99.90;;;;;;4973251;28;20879;-80
2023/05/04 01:40:34;;;;;;;10.13;6.47;;;10.30;99.90;;;;;;4971304;28;20450;-80
2023/05/04 01:43:00;;;;;;;10.30;7.27;;;10.30;99.90;;;;;;4965237;28;20686;-80
2023/05/04 01:45:25;;;;;;;9.60;6.40;;;10.30;99.90;;;;;;4974019;28;20262;-80
2023/05/04 01:47:51;;;;;;;9.90;6.30;;;10.20;99.90;;;;;;4971515;28;20180;-80
2023/05/04 01:50:16;;;;;;;13.90;7.20;;;10.20;99.90;;;;;;4974199;28;20308;-80
2023/05/04 01:52:42;;;;;;;8.40;6.70;;;10.20;99.90;;;;;;4973799;28;20665;-80
2023/05/04 01:55:08;;;;;;;9.30;6.47;;;10.20;99.90;;;;;;4973838;28;20584;-80
2023/05/04 01:57:33;;;;;;;9.50;6.97;;;10.10;99.90;;;;;;4973450;28;20204;-80
2023/05/04 01:59:59;;;;;;;10.20;7.10;;;10.10;99.90;;;;;;4965440;28;20944;-81
2023/05/04 02:02:24;;;;;;;10.57;6.50;;;10.10;99.90;;;;;;4972079;28;20200;-79
2023/05/04 02:04:50;;;;;;;7.60;6.77;;;10.10;99.90;;;;;;4972257;28;20622;-78
2023/05/04 02:07:15;;;;;;;10.20;6.10;;;10.10;99.90;;;;;;4972634;28;20215;-80
2023/05/04 02:09:41;;;;;;;12.00;6.83;;;10.10;99.90;;;;;;4972930;28;20181;-79
2023/05/04 02:12:07;;;;;;;13.90;6.80;;;10.00;99.90;;;;;;4973533;28;20183;-79
2023/05/04 02:14:32;;;;;;;7.37;6.10;;;10.00;99.90;;;;;;4972031;28;20192;-80
2023/05/04 02:16:58;;;;;;;9.00;6.33;;;10.00;99.90;;;;;;4965581;28;20218;-81
2023/05/04 02:19:24;;;;;;;7.73;6.03;;;10.00;99.90;;;;;;4973811;28;20630;-80
2023/05/04 02:21:51;;;;;;;12.57;6.57;;;9.90;99.90;;;;;;4974192;28;20184;-79
2023/05/04 02:24:16;;;;;;;9.13;5.80;;;9.90;99.90;;;;;;4976433;28;20191;-80
2023/05/04 02:26:42;;;;;;;8.83;5.83;;;9.90;99.90;;;;;;4977442;28;20455;-80
2023/05/04 02:29:07;;;;;;;12.67;7.30;;;9.90;99.90;;;;;;4977634;28;21057;-80
2023/05/04 02:31:33;;;;;;;9.13;6.47;;;9.90;99.90;;;;;;4976802;28;20195;-81
2023/05/04 02:33:59;;;;;;;8.17;6.60;;;9.90;99.90;;;;;;4975625;28;20195;-80
2023/05/04 02:36:25;;;;;;;11.20;6.80;;;9.90;99.90;;;;;;4977546;28;20210;-81
2023/05/04 02:38:50;;;;;;;14.40;6.70;;;9.90;99.90;;;;;;4978882;28;20779;-80
2023/05/04 02:41:16;;;;;;;11.10;6.87;;;9.80;99.90;;;;;;4979461;28;20184;-79
2023/05/04 02:43:41;;;;;;;12.90;6.57;;;9.80;99.90;;;;;;4978525;28;20242;-81
2023/05/04 02:46:07;;;;;;;12.20;7.10;;;9.80;99.90;;;;;;4978137;28;20309;-82
2023/05/04 02:48:32;;;;;;;9.53;6.17;;;9.80;99.90;;;;;;4968364;28;20180;-81
2023/05/04 02:50:58;;;;;;;9.33;7.00;;;9.70;99.90;;;;;;4975597;28;20196;-81
2023/05/04 02:53:23;;;;;;;7.23;5.97;;;9.70;99.90;;;;;;4975289;28;20200;-81
2023/05/04 02:55:49;;;;;;;8.40;6.80;;;9.60;99.90;;;;;;4975856;28;20227;-81
2023/05/04 02:58:14;;;;;;;10.97;6.93;;;9.60;99.90;;;;;;4974641;28;20196;-81
2023/05/04 03:00:41;;;;;;;10.17;6.80;;;9.50;99.90;;;;;;4975270;28;20196;-81
2023/05/04 03:03:06;;;;;;;10.03;6.30;;;9.40;99.90;;;;;;4975223;28;20204;-81
2023/05/04 03:05:31;;;;;;;10.77;6.67;;;9.40;99.90;;;;;;4974270;28;20482;-81
2023/05/04 03:07:57;;;;;;;10.73;6.53;;;9.40;99.90;;;;;;4971726;28;20196;-81
2023/05/04 03:10:23;;;;;;;12.40;7.20;;;9.40;99.90;;;;;;4975230;28;20658;-81
2023/05/04 03:12:48;;;;;;;16.73;7.60;;;9.40;99.90;;;;;;4973763;28;20772;-80
2023/05/04 03:15:14;;;;;;;8.57;6.07;;;9.40;99.90;;;;;;4974997;28;20580;-81
2023/05/04 03:17:39;;;;;;;8.57;6.33;;;9.30;99.90;;;;;;4974945;28;20188;-81
2023/05/04 03:20:05;;;;;;;13.30;6.50;;;9.20;99.90;;;;;;4975370;28;20197;-81
2023/05/04 03:22:31;;;;;;;14.85;6.25;;;9.20;99.90;;;;;;4973220;28;20216;-81
2023/05/04 03:24:56;;;;;;;9.80;6.07;;;9.20;99.90;;;;;;4969026;28;20272;-80
2023/05/04 03:27:22;;;;;;;14.30;7.00;;;9.20;99.90;;;;;;4974781;28;20184;-81
2023/05/04 03:29:47;;;;;;;13.53;7.57;;;9.10;99.90;;;;;;4970899;28;20188;-82
2023/05/04 03:32:13;;;;;;;14.87;6.47;;;9.20;99.90;;;;;;4973854;28;20188;-81
2023/05/04 03:34:38;;;;;;;20.83;6.43;;;9.20;99.90;;;;;;4974158;28;20212;-81
2023/05/04 03:37:04;;;;;;;13.37;6.10;;;9.20;99.90;;;;;;4974673;28;20219;-80
2023/05/04 03:39:29;;;;;;;12.73;6.10;;;9.20;99.90;;;;;;4974772;28;20196;-81
2023/05/04 03:41:55;;;;;;;12.10;5.00;;;9.30;99.90;;;;;;4974666;28;20196;-81
2023/05/04 03:44:20;;;;;;;13.90;5.80;;;9.30;99.90;;;;;;4965236;28;20696;-80
2023/05/04 03:46:46;;;;;;;18.43;6.70;;;9.30;99.90;;;;;;4974740;28;20185;-81
2023/05/04 03:49:13;;;;;;;21.93;7.50;;;9.30;99.90;;;;;;4988219;28;20195;-82
2023/05/04 03:51:38;;;;;;;20.83;8.43;;;9.30;99.90;;;;;;4974109;28;20220;-80
2023/05/04 03:54:04;;;;;;;22.67;7.63;;;9.30;99.90;;;;;;4974340;28;20223;-81
2023/05/04 03:56:30;;;;;;;11.68;6.22;;;9.30;99.90;;;;;;4972369;28;20204;-81
2023/05/04 03:58:55;;;;;;;18.60;7.47;;;9.30;1.00;;;;;;4971771;28;20271;-81
2023/05/04 04:01:21;;;;;;;18.40;6.63;;;9.20;1.00;;;;;;4971959;28;20188;-79
2023/05/04 04:03:46;;;;;;;13.30;6.27;;;9.20;1.00;;;;;;4974909;28;20212;-81
2023/05/04 04:06:12;;;;;;;16.40;6.00;;;9.20;1.00;;;;;;4974213;28;20206;-81
2023/05/04 04:08:37;;;;;;;15.40;5.33;;;9.20;1.00;;;;;;4973998;28;20284;-81
2023/05/04 04:11:03;;;;;;;14.17;5.57;;;9.20;1.00;;;;;;4974224;28;20180;-81
2023/05/04 04:13:29;;;;;;;8.77;4.93;;;9.20;1.00;;;;;;4975564;28;20207;-81
2023/05/04 04:15:54;;;;;;;16.90;6.53;;;9.20;1.00;;;;;;4984269;28;20208;-80
2023/05/04 04:18:22;;;;;;;15.67;6.53;;;9.20;1.00;;;;;;4988266;28;20192;-80
2023/05/04 04:20:47;;;;;;;15.97;4.70;;;9.30;1.00;;;;;;4974392;28;20180;-81
2023/05/04 04:23:17;;;;;;;31.13;5.57;;;9.30;1.00;;;;;;4974605;28;20467;-82
2023/05/04 04:25:42;;;;;;;15.50;5.20;;;9.30;1.00;;;;;;4975406;28;20200;-80
2023/05/04 04:28:08;;;;;;;13.50;5.10;;;9.40;1.00;;;;;;4990787;28;20431;-80
2023/05/04 04:30:33;;;;;;;13.93;5.00;;;9.40;1.00;;;;;;4989473;28;20685;-80
2023/05/04 04:32:59;;;;;;;14.17;5.37;;;9.50;99.90;;;;;;4975776;28;20195;-80
2023/05/04 04:35:26;;;;;;;18.27;4.67;;;9.50;99.90;;;;;;4968348;28;20220;-79
2023/05/04 04:37:51;;;;;;;12.93;5.07;;;9.60;99.90;;;;;;4980270;28;20188;-79
2023/05/04 04:40:17;;;;;;;9.77;5.17;;;9.60;99.90;;;;;;4977541;28;20439;-80
2023/05/04 04:42:42;;;;;;;14.40;4.80;;;9.70;99.90;;;;;;4978424;28;20227;-81
2023/05/04 04:45:08;;;;;;;17.70;5.77;;;9.80;99.90;;;;;;4977642;28;20688;-81
2023/05/04 04:47:34;;;;;;;13.13;6.20;;;9.90;99.90;;;;;;4978784;28;20188;-81
2023/05/04 04:50:00;;;;;;;20.77;5.60;;;10.00;99.90;;;;;;4978881;28;20950;-81
2023/05/04 04:52:26;;;;;;;19.90;5.20;;;10.20;99.90;;;;;;4972301;28;20447;-80
2023/05/04 04:54:51;;;;;;;12.77;5.03;;;10.30;99.90;;;;;;4993595;28;20291;-81
2023/05/04 04:57:17;;;;;;;17.13;5.30;;;10.50;99.90;;;;;;4976975;28;20191;-80
2023/05/04 04:59:42;;;;;;;13.57;4.83;;;10.70;99.90;;;;;;4978007;28;20234;-80
2023/05/04 05:02:08;;;;;;;24.53;6.17;;;10.80;99.90;;;;;;4979208;28;20189;-81
2023/05/04 05:04:36;;;;;;;11.03;5.17;;;11.00;99.90;;;;;;4977778;28;20570;-79
2023/05/04 05:07:02;;;;;;;18.63;5.70;;;11.10;99.90;;;;;;4974943;28;20215;-82
2023/05/04 05:09:28;;;;;;;13.80;4.87;;;11.30;99.90;;;;;;4978360;28;20438;-81
2023/05/04 05:11:54;;;;;;;25.53;5.33;;;11.40;99.90;;;;;;4977536;28;20436;-82
2023/05/04 05:14:19;;;;;;;12.73;5.23;;;11.50;99.90;;;;;;4977584;28;20213;-81
2023/05/04 05:16:45;;;;;;;28.07;4.90;;;11.70;99.90;;;;;;4978476;28;20200;-81
2023/05/04 05:19:10;;;;;;;13.37;4.93;;;11.90;99.90;;;;;;4978244;28;20199;-81
2023/05/04 05:21:36;;;;;;;15.40;4.63;;;12.00;99.90;;;;;;4974515;28;20196;-79
2023/05/04 05:24:01;;;;;;;18.37;6.10;;;12.20;99.90;;;;;;4969705;28;20212;-80
2023/05/04 05:26:27;;;;;;;19.30;5.03;;;12.40;99.90;;;;;;4970454;28;20201;-80
2023/05/04 05:28:52;;;;;;;15.50;5.60;;;12.70;99.90;;;;;;4973051;28;20959;-81
2023/05/04 05:31:18;;;;;;;10.77;4.60;;;13.20;99.90;;;;;;4972735;28;20197;-80
2023/05/04 05:33:43;;;;;;;18.93;5.20;;;13.80;99.90;;;;;;4973394;28;20636;-79
2023/05/04 05:36:09;;;;;;;26.33;6.20;;;14.80;99.90;;;;;;4974949;28;20242;-81
2023/05/04 05:38:34;;;;;;;12.43;5.20;;;15.70;99.90;;;;;;4975210;28;20202;-80
2023/05/04 05:41:00;;;;;;;22.10;5.07;;;16.50;99.90;;;;;;4966078;28;23485;-80
2023/05/04 05:43:25;;;;;;;15.50;5.20;;;17.10;99.90;;;;;;4966748;28;20211;-81
2023/05/04 05:45:52;;;;;;;12.43;4.90;;;17.70;99.90;;;;;;4972620;28;20265;-80
2023/05/04 05:48:17;;;;;;;19.53;5.70;;;17.90;99.90;;;;;;4972130;28;20652;-81
2023/05/04 05:50:43;;;;;;;10.97;5.30;;;18.10;99.90;;;;;;4973127;28;20460;-80
2023/05/04 05:53:08;;;;;;;24.17;5.10;;;18.50;99.90;;;;;;4974143;28;20198;-80
2023/05/04 05:55:34;;;;;;;16.33;5.10;;;19.10;99.90;;;;;;4964313;28;20708;-81
2023/05/04 05:58:00;;;;;;;17.63;5.17;;;19.50;99.90;;;;;;4975486;28;20187;-80
2023/05/04 06:00:25;;;;;;;20.60;5.10;;;20.00;99.90;;;;;;4968376;28;20214;-80
2023/05/04 06:02:51;;;;;;;19.10;6.10;;;20.90;99.90;;;;;;4973463;28;20216;-80
2023/05/04 06:05:16;;;;;;;28.70;5.17;;;22.40;99.90;;;;;;4974231;28;20605;-80
2023/05/04 06:07:42;;;;;;;14.07;4.87;;;24.60;99.90;;;;;;4974250;28;20195;-80
2023/05/04 06:10:08;;;;;;;13.37;6.10;;;25.40;99.90;;;;;;4970532;28;20642;-80
2023/05/04 06:12:33;;;;;;;11.20;5.43;;;25.60;99.90;;;;;;4973717;28;20188;-80
2023/05/04 06:14:59;;;;;;;16.00;5.00;;;25.60;99.90;;;;;;4973752;28;20878;-80
2023/05/04 06:17:25;;;;;;;11.30;5.00;;;25.60;99.90;;;;;;4974763;28;20192;-80
2023/05/04 06:19:50;;;;;;;12.80;5.53;;;25.70;99.90;;;;;;4973067;28;20207;-79
2023/05/04 06:22:16;;;;;;;9.10;5.10;;;25.50;99.90;;;;;;4973735;28;20180;-80
2023/05/04 06:24:42;;;;;;;11.27;5.43;;;25.50;99.90;;;;;;4970190;28;20465;-80
2023/05/04 06:27:07;;;;;;;8.33;5.73;;;26.30;99.90;;;;;;4974943;28;20184;-81
2023/05/04 06:29:33;;;;;;;5.90;4.07;;;27.10;99.90;;;;;;4973985;28;20646;-82
2023/05/04 06:31:59;;;;;;;9.13;5.00;;;28.10;99.90;;;;;;4975792;28;20188;-81
2023/05/04 06:34:24;;;;;;;9.83;4.27;;;28.20;99.90;;;;;;4976133;28;20219;-81
2023/05/04 06:36:50;;;;;;;7.70;4.47;;;28.40;99.90;;;;;;4975758;28;20442;-81
2023/05/04 06:39:15;;;;;;;6.73;4.23;;;29.70;99.90;;;;;;4976070;28;20196;-81
2023/05/04 06:41:41;;;;;;;8.47;4.90;;;30.20;99.90;;;;;;4968176;28;20197;-81
2023/05/04 06:44:07;;;;;;;7.90;4.50;;;30.20;99.90;;;;;;4975091;28;20246;-81
2023/05/04 06:46:36;;;;;;;7.13;4.30;;;30.10;99.90;;;;;;4969205;28;20203;-81
2023/05/04 06:49:03;;;;;;;8.30;4.23;;;30.30;99.90;;;;;;4976166;28;20756;-82
2023/05/04 06:51:28;;;;;;;6.20;3.97;;;31.30;99.90;;;;;;4968692;28;20480;-81
2023/05/04 06:53:54;;;;;;;6.87;3.47;;;31.80;99.90;;;;;;4974445;28;20479;-81
2023/05/04 06:56:20;;;;;;;9.27;4.30;;;32.10;99.90;;;;;;4972640;28;20204;-82
2023/05/04 06:58:46;;;;;;;7.63;3.80;;;32.50;99.90;;;;;;4966906;28;20678;-82
2023/05/04 07:01:11;;;;;;;6.50;3.60;;;32.60;99.90;;;;;;4975682;28;20432;-83
2023/05/04 07:03:37;;;;;;;7.73;4.13;;;32.00;98.30;;;;;;4973615;28;20215;-79
2023/05/04 07:06:03;;;;;;;8.03;3.50;;;31.90;96.90;;;;;;4974496;28;20227;-81
2023/05/04 07:08:28;;;;;;;8.90;3.40;;;32.20;95.90;;;;;;4976077;28;20187;-82
2023/05/04 07:10:54;;;;;;;7.30;3.33;;;32.90;95.70;;;;;;4990923;28;20184;-82
2023/05/04 07:13:19;;;;;;;9.93;3.70;;;32.90;94.70;;;;;;4975194;28;20216;-82
2023/05/04 07:15:45;;;;;;;6.50;3.10;;;32.30;91.10;;;;;;4970237;28;20219;-81
2023/05/04 07:18:11;;;;;;;8.37;3.83;;;33.00;91.70;;;;;;4976009;28;20266;-80
2023/05/04 07:20:52;;;;;;;3.73;3.33;;;33.40;90.30;;;;;;4973642;28;20226;-81
2023/05/04 07:23:17;;;;;;;6.70;4.97;;;34.20;90.10;;;;;;4971506;28;20799;-81
2023/05/04 07:25:43;;;;;;;5.70;3.90;;;34.70;87.90;;;;;;4975335;28;20462;-81
2023/05/04 07:28:08;;;;;;;4.47;3.57;;;35.80;88.60;;;;;;4974828;28;20227;-80
2023/05/04 07:30:34;;;;;;;4.47;3.60;;;36.40;87.70;;;;;;4989736;23;20241;-86
2023/05/04 07:33:00;;;;;;;5.97;3.40;;;36.80;85.60;;;;;;4967124;28;20746;-83
2023/05/04 07:35:25;;;;;;;5.73;3.30;;;36.40;80.70;;;;;;4972078;28;20460;-87
2023/05/04 07:37:51;;;;;;;4.20;3.60;;;37.10;81.40;;;;;;4968078;28;20185;-83
2023/05/04 07:40:17;;;;;;;6.13;3.30;;;37.10;76.90;;;;;;4971011;28;20192;-83
2023/05/04 07:42:42;;;;;;;7.77;3.60;;;36.00;69.80;;;;;;4965343;28;20184;-82
2023/05/04 07:45:08;;;;;;;7.73;3.73;;;35.70;65.80;;;;;;4965937;28;20181;-84
2023/05/04 07:47:35;;;;;;;4.80;3.57;;;36.10;65.50;;;;;;4969151;28;20807;-84
2023/05/04 07:50:00;;;;;;;7.13;2.90;;;36.30;64.50;;;;;;4969101;28;20495;-85
2023/05/04 07:52:26;;;;;;;4.50;3.27;;;36.40;62.70;;;;;;4971518;28;20510;-86
2023/05/04 07:54:52;;;;;;;9.40;4.03;;;36.30;60.30;;;;;;4953810;28;20188;-82
2023/05/04 07:57:18;;;;;;;8.07;4.07;;;36.70;60.60;;;;;;4971496;28;20831;-84
2023/05/04 07:59:44;;;;;;;6.03;3.47;;;37.30;60.70;;;;;;4954628;28;20522;-83
2023/05/04 08:02:10;;;;;;;9.63;4.67;;;37.80;60.30;;;;;;4973596;28;20203;-83
2023/05/04 08:04:35;;;;;;;6.27;3.60;;;38.50;60.10;;;;;;4969760;28;20211;-83
2023/05/04 08:07:01;;;;;;;8.30;4.00;;;38.50;58.80;;;;;;4973340;28;20431;-84
2023/05/04 08:09:26;;;;;;;4.43;3.87;;;38.70;57.40;;;;;;4973465;28;20631;-83
2023/05/04 08:11:53;;;;;;;7.73;3.83;;;38.60;55.70;;;;;;4977129;28;20280;-84
2023/05/04 08:14:18;;;;;;;4.87;3.53;;;38.30;54.30;;;;;;4979219;28;20777;-83
2023/05/04 08:16:44;;;;;;;7.60;4.00;;;37.40;51.40;;;;;;4971161;28;20533;-83
2023/05/04 08:19:11;;;;;;;7.50;3.33;;;36.70;49.20;;;;;;4958859;28;20234;-84
2023/05/04 08:21:36;;;;;;;9.20;3.50;;;37.30;50.40;;;;;;4969547;28;20207;-86
2023/05/04 08:24:03;;;;;;;6.10;3.80;;;38.00;52.70;;;;;;4959831;28;20988;-85
2023/05/04 08:26:29;;;;;;;4.87;3.90;;;38.00;50.60;;;;;;4976216;28;20547;-83
2023/05/04 08:29:06;;;;;;;5.40;4.20;;;37.60;49.00;;;;;;4975593;28;20435;-83
2023/05/04 08:31:33;;;;;;;6.83;3.90;;;37.80;48.30;;;;;;4974068;28;20473;-85
2023/05/04 08:33:58;;;;;;;6.40;4.33;;;38.60;50.40;;;;;;4979065;28;20530;-85
2023/05/04 08:36:25;;;;;;;5.40;4.20;;;39.20;50.80;;;;;;4955478;28;20989;-84
2023/05/04 08:38:52;;;;;;;5.50;4.03;;;39.40;49.90;;;;;;4976910;28;20185;-85
2023/05/04 08:41:17;;;;;;;9.57;4.73;;;38.90;48.20;;;;;;4958273;28;20555;-84
2023/05/04 08:43:45;;;;;;;6.00;3.77;;;38.60;47.30;;;;;;4976217;28;20502;-86
2023/05/04 08:46:12;;;;;;;9.57;3.90;;;38.80;46.80;;;;;;4978005;28;20184;-83
2023/05/04 08:48:37;;;;;;;4.37;3.97;;;38.50;45.70;;;;;;4975126;28;20443;-84
2023/05/04 08:51:05;;;;;;;10.17;4.20;;;37.10;40.90;;;;;;4977761;28;20462;-85
2023/05/04 08:53:34;;;;;;;4.63;4.00;;;37.00;41.10;;;;;;4969477;28;20189;-84
2023/05/04 08:56:03;;;;;;;5.90;3.83;;;37.00;43.00;;;;;;4975196;28;20482;-85
2023/05/04 08:58:30;;;;;;;5.20;3.70;;;36.90;40.70;;;;;;4975724;28;20468;-84
2023/05/04 09:00:57;;;;;;;5.70;4.07;;;37.40;43.60;;;;;;4975891;28;20677;-83
2023/05/04 09:03:23;;;;;;;7.73;4.20;;;38.30;45.90;;;;;;4976023;28;20471;-83
2023/05/04 09:05:49;;;;;;;8.23;4.03;;;38.40;45.50;;;;;;4976361;28;20442;-83
2023/05/04 09:08:16;;;;;;;9.03;4.20;;;38.90;45.70;;;;;;4974903;28;20620;-83
2023/05/04 09:10:41;;;;;;;6.77;4.73;;;39.00;44.80;;;;;;4969834;28;20456;-83
2023/05/04 09:13:07;;;;;;;6.27;4.40;;;39.00;44.80;;;;;;4958540;28;20434;-85
2023/05/04 09:15:33;;;;;;;9.43;4.40;;;39.00;44.80;;;;;;4958210;28;20180;-83
2023/05/04 09:18:02;;;;;;;10.43;4.60;;;39.20;45.40;;;;;;4959675;28;20239;-83
2023/05/04 09:20:28;;;;;;;7.90;4.43;;;39.50;45.00;;;;;;4971743;28;20181;-83
2023/05/04 09:23:01;;;;;;;7.27;5.13;;;39.80;45.50;;;;;;4971456;28;20563;-83
2023/05/04 09:25:26;;;;;;;5.03;4.60;;;39.90;45.00;;;;;;4975398;28;20431;-84
2023/05/04 09:27:55;;;;;;;6.27;4.50;;;40.30;45.70;;;;;;4967725;28;20863;-84
2023/05/04 09:30:21;;;;;;;10.50;5.20;;;39.70;43.30;;;;;;4974431;28;20216;-84
2023/05/04 09:32:48;;;;;;;5.50;4.67;;;39.40;42.90;;;;;;4954173;28;20471;-84
2023/05/04 09:35:17;;;;;;;6.97;4.63;;;39.00;41.20;;;;;;4971434;28;20732;-85
2023/05/04 09:37:46;;;;;;;6.77;4.60;;;39.00;41.60;;;;;;4972491;28;20478;-85
2023/05/04 09:40:12;;;;;;;8.50;4.07;;;39.20;42.30;;;;;;4971120;28;20434;-85
2023/05/04 09:42:38;;;;;;;13.00;5.00;;;39.70;44.00;;;;;;4971166;28;20554;-84
2023/05/04 09:45:07;;;;;;;7.53;5.17;;;39.90;43.80;;;;;;4971342;28;20443;-84
2023/05/04 09:47:38;;;;;;;6.93;4.50;;;39.60;43.00;;;;;;4973532;28;20197;-84
2023/05/04 09:50:18;;;;;;;9.30;5.77;;;39.50;42.20;;;;;;4970207;28;20446;-84
2023/05/04 09:52:45;;;;;;;9.03;4.47;;;39.40;41.70;;;;;;4972107;28;20447;-83
2023/05/04 09:55:13;;;;;;;6.10;4.70;;;39.40;42.70;;;;;;4947503;28;20498;-83
2023/05/04 09:57:43;;;;;;;4.70;4.20;;;38.70;41.20;;;;;;4971329;28;20466;-85
2023/05/04 10:00:11;;;;;;;8.10;5.00;;;38.50;39.40;;;;;;4965090;28;20499;-83
2023/05/04 10:02:37;;;;;;;8.87;5.27;;;38.20;39.40;;;;;;4971800;28;20471;-83
2023/05/04 10:05:05;;;;;;;8.83;5.43;;;38.40;39.70;;;;;;4972405;28;20960;-84
2023/05/04 10:07:32;;;;;;;9.63;5.27;;;38.50;40.40;;;;;;4974591;28;20432;-84
2023/05/04 10:09:58;;;;;;;5.67;4.40;;;38.50;40.70;;;;;;4974366;28;20992;-86
2023/05/04 10:12:24;;;;;;;7.23;4.30;;;38.40;40.10;;;;;;4969312;28;20463;-83
2023/05/04 10:14:50;;;;;;;5.70;4.70;;;38.30;39.30;;;;;;4971928;28;20740;-83
2023/05/04 10:17:34;;;;;;;4.70;4.27;;;38.10;39.50;;;;;;4972186;28;21203;-86
2023/05/04 10:20:15;;;;;;;6.60;4.37;;;37.80;38.00;;;;;;4974311;28;20193;-85
2023/05/04 10:23:21;;;;;;;4.43;4.03;;;38.00;38.90;;;;;;4954240;28;21016;-84
2023/05/04 10:25:52;;;;;;;4.93;4.20;;;37.60;37.60;;;;;;4956657;28;20485;-85
2023/05/04 10:28:26;;;;;;;4.20;3.77;;;37.20;37.00;;;;;;4956445;28;20463;-86
2023/05/04 10:30:59;;;;;;;4.33;3.80;;;36.70;36.40;;;;;;4953400;28;20463;-85
2023/05/04 10:33:25;;;;;;;5.07;4.17;;;36.50;36.20;;;;;;4975147;28;20450;-84
2023/05/04 10:35:52;;;;;;;5.20;4.07;;;36.20;35.40;;;;;;4957091;28;20506;-84
2023/05/04 10:38:18;;;;;;;4.47;3.97;;;36.20;36.00;;;;;;4974778;28;20447;-84
2023/05/04 10:40:47;;;;;;;9.20;4.00;;;35.80;35.00;;;;;;4975370;28;20459;-83
2023/05/04 10:43:24;;;;;;;5.33;4.20;;;35.50;35.20;;;;;;4973895;28;20463;-86
2023/05/04 10:45:50;;;;;;;9.10;4.90;;;35.40;35.20;;;;;;4966934;28;20925;-85
2023/05/04 10:48:16;;;;;;;4.53;4.13;;;35.20;36.20;;;;;;4975952;28;20443;-85
2023/05/04 10:50:47;;;;;;;6.60;4.50;;;34.90;34.40;;;;;;4976266;28;20455;-86
2023/05/04 10:53:14;;;;;;;5.20;3.70;;;34.70;34.50;;;;;;4957580;28;20182;-86
2023/05/04 10:55:47;;;;;;;4.17;3.70;;;35.00;35.50;;;;;;4957960;28;20435;-85
2023/05/04 10:58:15;;;;;;;7.73;4.60;;;35.40;36.40;;;;;;4972247;28;20431;-87
2023/05/04 11:00:45;;;;;;;7.17;4.37;;;35.10;35.50;;;;;;4955543;28;20515;-86
2023/05/04 11:03:11;;;;;;;5.47;3.27;;;35.10;36.20;;;;;;4964739;28;20645;-86
2023/05/04 11:05:42;;;;;;;5.80;3.70;;;35.10;35.90;;;;;;4971066;28;20470;-85
2023/05/04 11:08:22;;;;;;;8.13;3.53;;;35.20;36.50;;;;;;4974929;28;20440;-85
2023/05/04 11:11:02;;;;;;;13.50;3.60;;;35.30;38.10;;;;;;4970975;28;20459;-86
2023/05/04 11:13:30;;;;;;;9.17;3.20;;;35.10;36.10;;;;;;4976248;28;20517;-85
2023/05/04 11:15:56;;;;;;;7.87;4.10;;;34.90;35.80;;;;;;4971160;28;20440;-85
2023/05/04 11:18:36;;;;;;;6.63;3.10;;;34.80;34.80;;;;;;4972820;28;20946;-83
2023/05/04 11:21:02;;;;;;;2.73;2.50;;;34.60;33.80;;;;;;4967906;28;20693;-85
2023/05/04 11:23:27;;;;;;;7.07;2.97;;;34.40;33.80;;;;;;4958803;28;20460;-87
2023/05/04 11:25:53;;;;;;;3.60;2.63;;;34.40;34.00;;;;;;4973172;28;20443;-84
2023/05/04 11:28:29;;;;;;;3.20;2.70;;;34.10;34.10;;;;;;4974667;28;20181;-85
2023/05/04 11:30:56;;;;;;;3.60;3.30;;;34.00;34.40;;;;;;4953767;28;20478;-84
2023/05/04 11:33:21;;;;;;;8.33;3.60;;;33.90;34.20;;;;;;4973151;28;20431;-85
2023/05/04 11:35:47;;;;;;;4.40;3.20;;;34.10;34.60;;;;;;4966555;28;20743;-84
2023/05/04 11:38:18;;;;;;;6.80;2.93;;;33.70;33.30;;;;;;4954234;28;20188;-84
2023/05/04 11:40:47;;;;;;;3.33;3.00;;;33.30;32.50;;;;;;4956603;28;20242;-86
2023/05/04 11:43:13;;;;;;;6.03;3.57;;;33.00;32.30;;;;;;4975820;28;20558;-87
2023/05/04 11:45:40;;;;;;;5.70;3.70;;;32.80;31.90;;;;;;4966659;28;20468;-86
2023/05/04 11:48:07;;;;;;;3.70;3.20;;;32.50;31.30;;;;;;4962062;28;20466;-84
2023/05/04 11:50:33;;;;;;;5.00;3.70;;;32.30;31.10;;;;;;4976959;28;20545;-85
2023/05/04 11:53:11;;;;;;;4.67;3.47;;;32.40;32.70;;;;;;4955535;28;20535;-86
2023/05/04 11:55:37;;;;;;;6.53;3.47;;;32.60;33.00;;;;;;4974087;28;20195;-85
2023/05/04 11:58:08;;;;;;;4.03;3.40;;;32.70;34.00;;;;;;4978019;28;20462;-83
2023/05/04 12:00:34;;;;;;;3.47;3.10;;;32.70;34.30;;;;;;4961797;28;20538;-85
2023/05/04 12:03:00;;;;;;;6.67;3.30;;;32.70;34.10;;;;;;4977332;28;20494;-85
2023/05/04 12:05:26;;;;;;;7.87;2.90;;;32.80;35.20;;;;;;4978592;28;20435;-86
2023/05/04 12:07:51;;;;;;;6.40;3.50;;;32.90;35.60;;;;;;4980334;28;20443;-85
2023/05/04 12:10:25;;;;;;;4.83;3.30;;;33.20;35.90;;;;;;4959007;28;20444;-84
2023/05/04 12:12:51;;;;;;;7.73;3.07;;;33.30;37.50;;;;;;4979545;28;20243;-84
2023/05/04 12:15:30;;;;;;;4.60;3.37;;;33.40;37.30;;;;;;4978645;28;20450;-84
2023/05/04 12:17:55;;;;;;;6.33;3.30;;;33.50;38.00;;;;;;4977700;28;20191;-83
2023/05/04 12:20:24;;;;;;;8.23;3.50;;;33.60;37.10;;;;;;4978286;28;20451;-85
2023/05/04 12:22:49;;;;;;;4.40;3.03;;;33.50;36.60;;;;;;4979256;28;20251;-85
2023/05/04 12:25:18;;;;;;;3.80;3.00;;;33.30;35.70;;;;;;4980000;28;20466;-85
2023/05/04 12:27:44;;;;;;;3.93;3.30;;;33.10;34.90;;;;;;4957807;28;20216;-87
2023/05/04 12:30:11;;;;;;;6.90;3.30;;;32.80;34.60;;;;;;4977848;28;20949;-86
2023/05/04 12:32:36;;;;;;;2.97;2.70;;;32.80;35.90;;;;;;4976992;28;20455;-84
2023/05/04 12:35:03;;;;;;;4.90;3.00;;;33.00;35.60;;;;;;4980258;28;20442;-84
2023/05/04 12:37:29;;;;;;;3.97;2.97;;;32.90;34.80;;;;;;4972874;28;20228;-86
2023/05/04 12:39:54;;;;;;;8.07;3.63;;;32.50;34.30;;;;;;4977086;28;20447;-85
2023/05/04 12:42:20;;;;;;;7.93;3.80;;;32.20;46.30;;;;;;4978073;28;20499;-85
2023/05/04 12:44:46;;;;;;;7.13;3.43;;;31.90;32.50;;;;;;4962473;28;20256;-84